Betty Knutsen — LAMC5 — position and weather

sailwx.info

Track history (hours):
 
Tides and Currents Weather Stations Pressure Air Temp Water Temp Dewpoint Dewpoint Depression Visibility Wind Speed Wind Dir Waves Ship Positions

Betty Knutsen

Last reported at 2018-Feb-21 19:11 UTC. Time now 2018-Feb-22 06:28 UTC.
Position N 57°53' E 010°17'.

Length 187 m; draft 8.3 m.

Type: Tanker. MMSI: 257392000.

Date/timePositionNaut miles runAvg speedWind from/ knotsBaromVisibWave heightAir tempDewpointWater temp
2018-Feb-21 19:11N 57°53' E 010°17'210.0
2018-Feb-21 18:57N 57°53' E 010°21'4 9.8
2018-Feb-21 18:31N 57°53' E 010°29'4 8.4
2018-Feb-21 18:00N 57°54' E 010°37'3 6.4
2018-Feb-21 17:31N 57°53' E 010°43'4 8.3
2018-Feb-21 17:00N 57°49' E 010°46'4 7.6
2018-Feb-21 16:30N 57°46' E 010°47'4 7.6
2018-Feb-21 16:00N 57°42' E 010°47'4 7.8
2018-Feb-21 15:31N 57°38' E 010°43'0 0.8
2018-Feb-21 14:58N 57°38' E 010°42'0 0.0
2018-Feb-21 14:25N 57°38' E 010°42'0 0.1
2018-Feb-21 13:58N 57°38' E 010°42'0 0.0
2018-Feb-21 13:28N 57°38' E 010°42'0 0.0
2018-Feb-21 12:55N 57°38' E 010°42'0 0.0
2018-Feb-21 12:28N 57°38' E 010°42'0 0.0
2018-Feb-21 11:55N 57°38' E 010°42'0 0.0
2018-Feb-21 11:28N 57°38' E 010°42'0 0.0
2018-Feb-21 10:58N 57°38' E 010°42'0 0.1
2018-Feb-21 10:28N 57°38' E 010°42'0 0.2
2018-Feb-21 09:58N 57°38' E 010°42'0 0.1
2018-Feb-21 09:28N 57°38' E 010°42'0 0.1
2018-Feb-21 08:52N 57°38' E 010°42'0 0.0
2018-Feb-21 08:19N 57°38' E 010°42'0 0.0
2018-Feb-21 07:25N 57°38' E 010°42'0 0.0
2018-Feb-21 06:55N 57°38' E 010°42'0 0.1
2018-Feb-21 06:28N 57°38' E 010°42'0 0.1
2018-Feb-21 05:55N 57°38' E 010°42'0 0.1
2018-Feb-21 05:28N 57°38' E 010°42'0 0.0
2018-Feb-21 04:58N 57°38' E 010°42'0 0.0
2018-Feb-21 04:28N 57°38' E 010°42'0 0.0
2018-Feb-21 03:58N 57°38' E 010°42'0 0.0
2018-Feb-21 03:25N 57°38' E 010°42'0 0.0
2018-Feb-21 02:58N 57°38' E 010°42'0 0.0
2018-Feb-21 02:28N 57°38' E 010°42'0 0.0
2018-Feb-21 01:55N 57°38' E 010°42'0 0.0
2018-Feb-21 01:28N 57°38' E 010°42'0 0.0
2018-Feb-21 00:58N 57°38' E 010°42'0 0.0
2018-Feb-21 00:28N 57°38' E 010°42'0 0.0
2018-Feb-21 00:01N 57°38' E 010°42'0 0.0
2018-Feb-20 23:30N 57°38' E 010°42'0 0.0
2018-Feb-20 23:00N 57°38' E 010°42'0 0.0
2018-Feb-20 22:30N 57°38' E 010°42'0 0.0
2018-Feb-20 22:00N 57°38' E 010°42'0 0.1
2018-Feb-20 21:30N 57°38' E 010°42'0 0.1
2018-Feb-20 21:00N 57°38' E 010°42'0 0.1
2018-Feb-20 20:30N 57°38' E 010°42'0 0.0
2018-Feb-20 20:00N 57°38' E 010°42'0 0.0
2018-Feb-20 19:30N 57°38' E 010°42'0 0.0
2018-Feb-20 19:00N 57°38' E 010°42'0 0.1
2018-Feb-20 18:30N 57°38' E 010°42'0 0.0
2018-Feb-20 18:00N 57°38' E 010°42'0 0.0
2018-Feb-20 17:30N 57°38' E 010°42'0 0.0
2018-Feb-20 16:51N 57°38' E 010°42'0 0.0
2018-Feb-20 16:30N 57°38' E 010°42'0 0.0
2018-Feb-20 16:00N 57°38' E 010°42'0 0.0
2018-Feb-20 15:30N 57°38' E 010°42'0 0.0
2018-Feb-20 14:57N 57°38' E 010°42'0 0.0
2018-Feb-20 14:30N 57°38' E 010°42'0 0.0
2018-Feb-20 14:00N 57°38' E 010°42'0 0.0
2018-Feb-20 13:27N 57°38' E 010°42'0 0.0
2018-Feb-20 12:57N 57°38' E 010°42'0 0.0
2018-Feb-20 12:30N 57°38' E 010°42'0 0.0
2018-Feb-20 12:00N 57°38' E 010°42'0 0.1
2018-Feb-20 11:27N 57°38' E 010°42'0 0.1
2018-Feb-20 10:57N 57°38' E 010°42'0 0.0
2018-Feb-20 10:30N 57°38' E 010°42'0 0.0
2018-Feb-20 09:57N 57°38' E 010°42'0 0.0
2018-Feb-20 09:30N 57°38' E 010°42'0 0.0
2018-Feb-20 08:57N 57°38' E 010°42'0 0.1
2018-Feb-20 08:30N 57°38' E 010°42'0 0.3
2018-Feb-20 08:00N 57°38' E 010°42'3 5.1
2018-Feb-20 07:31N 57°40' E 010°45'4 7.1
2018-Feb-20 07:01N 57°44' E 010°46'4 8.6
2018-Feb-20 06:30N 57°48' E 010°46'3 6.4
2018-Feb-20 06:01N 57°51' E 010°46'3 5.9
2018-Feb-20 05:30N 57°54' E 010°46'3 5.8
2018-Feb-20 05:01N 57°57' E 010°45'3 5.4
2018-Feb-20 04:31N 57°60' E 010°44'3 5.9
2018-Feb-20 04:00N 58°03' E 010°44'3 6.2
2018-Feb-20 03:30N 58°06' E 010°43'3 5.9
2018-Feb-20 03:00N 58°09' E 010°43'3 6.2
2018-Feb-20 02:30N 58°12' E 010°42'3 6.2
2018-Feb-20 02:00N 58°15' E 010°41'3 6.2
2018-Feb-20 01:29N 58°18' E 010°41'3 6.1
2018-Feb-20 01:00N 58°21' E 010°41'5 5.9
2018-Feb-20 00:09N 58°26' E 010°40'1 5.9
2018-Feb-19 23:57N 58°27' E 010°40'3 6.0
2018-Feb-19 23:30N 58°30' E 010°40'3 6.0
2018-Feb-19 23:00N 58°33' E 010°39'3 5.9
2018-Feb-19 22:30N 58°36' E 010°39'3 6.0
2018-Feb-19 22:00N 58°39' E 010°38'3 5.7
2018-Feb-19 21:31N 58°41' E 010°38'3 6.0
2018-Feb-19 21:01N 58°44' E 010°37'3 6.1
2018-Feb-19 20:31N 58°47' E 010°37'3 6.3
2018-Feb-19 20:00N 58°51' E 010°36'3 6.8
2018-Feb-19 19:31N 58°54' E 010°36'4 7.6
2018-Feb-19 19:00N 58°58' E 010°35'4 7.7
2018-Feb-19 18:30N 59°02' E 010°36'4 7.2
2018-Feb-19 18:01N 59°05' E 010°33'510.3
2018-Feb-19 17:31N 59°10' E 010°38'611.7
2018-Feb-19 17:00N 59°15' E 010°35'5 9.0
2018-Feb-19 16:28N 59°20' E 010°31'0 0.2
2018-Feb-19 15:58N 59°20' E 010°31'0 0.0
2018-Feb-19 15:28N 59°20' E 010°31'0 0.0
2018-Feb-19 15:00N 59°20' E 010°31'0 0.0
2018-Feb-19 14:30N 59°20' E 010°31'0 0.0
2018-Feb-19 14:00N 59°20' E 010°31'0 0.0
2018-Feb-19 13:30N 59°20' E 010°31'0 0.0
2018-Feb-19 13:00N 59°20' E 010°31'0 0.0
2018-Feb-19 12:30N 59°20' E 010°31'0 0.0
2018-Feb-19 12:00N 59°20' E 010°31'0 0.0
2018-Feb-19 11:30N 59°20' E 010°31'0 0.0
2018-Feb-19 11:00N 59°20' E 010°31'0 0.0
2018-Feb-19 10:30N 59°20' E 010°31'0 0.0
2018-Feb-19 10:00N 59°20' E 010°31'0 0.0
2018-Feb-19 09:30N 59°20' E 010°31'0 0.0
2018-Feb-19 09:00N 59°20' E 010°31'0 0.0
2018-Feb-19 08:30N 59°20' E 010°31'0 0.0
2018-Feb-19 08:00N 59°20' E 010°31'0 0.0
2018-Feb-19 07:30N 59°20' E 010°31'0 0.0
2018-Feb-19 07:00N 59°20' E 010°31'0 0.0
2018-Feb-19 06:30N 59°20' E 010°31'0 0.0
2018-Feb-19 06:00N 59°20' E 010°31'0 0.0
2018-Feb-19 05:30N 59°20' E 010°31'0 0.0
2018-Feb-19 05:00N 59°20' E 010°31'0 0.0
2018-Feb-19 04:30N 59°20' E 010°31'0 0.0
2018-Feb-19 04:00N 59°20' E 010°31'0 0.0
2018-Feb-19 03:30N 59°20' E 010°31'0 0.0
2018-Feb-19 03:00N 59°20' E 010°31'0 0.0
2018-Feb-19 02:30N 59°20' E 010°31'0 0.0
2018-Feb-19 02:00N 59°20' E 010°31'0 0.0
2018-Feb-19 01:30N 59°20' E 010°31'0 0.0
2018-Feb-19 01:00N 59°20' E 010°31'0 0.0
2018-Feb-19 00:30N 59°20' E 010°31'0 0.0
2018-Feb-19 00:00N 59°20' E 010°31'0 0.0
2018-Feb-18 23:30N 59°20' E 010°31'0 0.0
2018-Feb-18 23:00N 59°20' E 010°31'0 0.0
2018-Feb-18 22:30N 59°20' E 010°31'0 0.0
2018-Feb-18 22:00N 59°20' E 010°31'0 0.0
2018-Feb-18 21:30N 59°20' E 010°31'0 0.0
2018-Feb-18 21:00N 59°20' E 010°31'0 0.0
2018-Feb-18 20:30N 59°20' E 010°31'0 0.0
2018-Feb-18 20:00N 59°20' E 010°31'0 0.0
2018-Feb-18 19:30N 59°20' E 010°31'0 0.0
2018-Feb-18 19:00N 59°20' E 010°31'0 0.0
2018-Feb-18 18:30N 59°20' E 010°31'0 0.0
2018-Feb-18 18:00N 59°20' E 010°31'0 0.2
2018-Feb-18 17:30N 59°20' E 010°31'2 3.2
2018-Feb-18 17:00N 59°19' E 010°33'5 9.7
2018-Feb-18 16:30N 59°14' E 010°36'5 9.8
2018-Feb-18 16:00N 59°09' E 010°39'5 9.7
2018-Feb-18 15:30N 59°05' E 010°34'4 8.4
2018-Feb-18 15:00N 59°01' E 010°35'5 9.9
2018-Feb-18 14:30N 58°56' E 010°31'510.9
2018-Feb-18 14:00N 58°53' E 010°24'510.8
2018-Feb-18 13:30N 58°49' E 010°17'611.3
2018-Feb-18 13:00N 58°44' E 010°10'611.3
2018-Feb-18 12:29N 58°40' E 010°02'5411.8
2018-Feb-18 07:52N 57°59' E 008°54'  
2018-Feb-12 19:05N 57°49' E 010°29'2 6.8
2018-Feb-12 18:49N 57°49' E 010°32'2 6.1
2018-Feb-12 18:31N 57°49' E 010°36'3 5.8
2018-Feb-12 17:58N 57°49' E 010°42'2 4.3
2018-Feb-12 17:31N 57°48' E 010°45'2 3.9
2018-Feb-12 17:01N 57°46' E 010°48'3 5.4
2018-Feb-12 16:30N 57°44' E 010°47'3 6.1
2018-Feb-12 16:00N 57°41' E 010°45'4 7.8
2018-Feb-12 15:30N 57°39' E 010°39'0 0.6
2018-Feb-12 15:00N 57°39' E 010°38'0 0.1
2018-Feb-12 14:30N 57°39' E 010°39'0 0.1
2018-Feb-12 14:00N 57°39' E 010°38'0 0.0
2018-Feb-12 13:24N 57°39' E 010°38'0 0.0
2018-Feb-12 12:57N 57°39' E 010°38'0 0.1
2018-Feb-12 12:30N 57°39' E 010°39'0 0.0
2018-Feb-12 11:57N 57°39' E 010°38'0 0.0
2018-Feb-12 11:24N 57°39' E 010°38'0 0.0
2018-Feb-12 10:59N 57°39' E 010°38'0 0.0
2018-Feb-12 10:26N 57°39' E 010°38'0 0.1
2018-Feb-12 09:59N 57°39' E 010°38'0 0.1
2018-Feb-12 08:44N 57°39' E 010°38'0 0.1
2018-Feb-12 08:29N 57°39' E 010°38'0 0.1
2018-Feb-12 07:59N 57°39' E 010°38'0 0.1
2018-Feb-12 07:29N 57°39' E 010°38'0 0.1
2018-Feb-12 06:59N 57°39' E 010°38'0 0.0
2018-Feb-12 06:29N 57°39' E 010°38'0 0.0
2018-Feb-12 05:56N 57°39' E 010°38'0 0.1
2018-Feb-12 05:29N 57°39' E 010°38'0 0.0
2018-Feb-12 04:59N 57°39' E 010°38'0 0.1
2018-Feb-12 04:26N 57°39' E 010°38'0 0.2
2018-Feb-12 03:59N 57°39' E 010°38'0 0.0
2018-Feb-12 03:29N 57°39' E 010°38'0 0.2
2018-Feb-12 02:56N 57°39' E 010°38'0 0.2
2018-Feb-12 02:29N 57°39' E 010°38'0 0.1
2018-Feb-12 01:59N 57°39' E 010°38'0 0.1
2018-Feb-12 01:26N 57°39' E 010°38'0 0.1
2018-Feb-12 00:56N 57°39' E 010°38'0 0.1
2018-Feb-12 00:26N 57°39' E 010°38'0 0.0
2018-Feb-11 23:56N 57°39' E 010°38'0 0.1
2018-Feb-11 23:29N 57°39' E 010°38'0 0.2
2018-Feb-11 22:59N 57°39' E 010°38'0 0.1
2018-Feb-11 22:29N 57°39' E 010°38'0 0.1
2018-Feb-11 21:56N 57°39' E 010°38'0 0.1
2018-Feb-11 21:29N 57°39' E 010°38'0 0.2
2018-Feb-11 20:59N 57°39' E 010°38'0 0.1
2018-Feb-11 20:23N 57°39' E 010°38'0 0.0
2018-Feb-11 19:53N 57°39' E 010°38'0 0.0
2018-Feb-11 19:26N 57°39' E 010°38'  
Track history (hours):
 
Tides and Currents Weather Stations Pressure Air Temp Water Temp Dewpoint Dewpoint Depression Visibility Wind Speed Wind Dir Waves Ship Positions

Betty Knutsen

Last reported at 2018-Feb-21 19:11 UTC. Time now 2018-Feb-22 06:28 UTC.
Position N 57°53' E 010°17'.

Length 187 m; draft 8.3 m.

Type: Tanker. MMSI: 257392000.

Date/timePositionNaut miles runAvg speedWind from/ knotsBaromVisibWave heightAir tempDewpointWater temp
2018-Feb-21 19:11N 57°53' E 010°17'210.0
2018-Feb-21 18:57N 57°53' E 010°21'4 9.8
2018-Feb-21 18:31N 57°53' E 010°29'4 8.4
2018-Feb-21 18:00N 57°54' E 010°37'3 6.4
2018-Feb-21 17:31N 57°53' E 010°43'4 8.3
2018-Feb-21 17:00N 57°49' E 010°46'4 7.6
2018-Feb-21 16:30N 57°46' E 010°47'4 7.6
2018-Feb-21 16:00N 57°42' E 010°47'4 7.8
2018-Feb-21 15:31N 57°38' E 010°43'0 0.8
2018-Feb-21 14:58N 57°38' E 010°42'0 0.0
2018-Feb-21 14:25N 57°38' E 010°42'0 0.1
2018-Feb-21 13:58N 57°38' E 010°42'0 0.0
2018-Feb-21 13:28N 57°38' E 010°42'0 0.0
2018-Feb-21 12:55N 57°38' E 010°42'0 0.0
2018-Feb-21 12:28N 57°38' E 010°42'0 0.0
2018-Feb-21 11:55N 57°38' E 010°42'0 0.0
2018-Feb-21 11:28N 57°38' E 010°42'0 0.0
2018-Feb-21 10:58N 57°38' E 010°42'0 0.1
2018-Feb-21 10:28N 57°38' E 010°42'0 0.2
2018-Feb-21 09:58N 57°38' E 010°42'0 0.1
2018-Feb-21 09:28N 57°38' E 010°42'0 0.1
2018-Feb-21 08:52N 57°38' E 010°42'0 0.0
2018-Feb-21 08:19N 57°38' E 010°42'0 0.0
2018-Feb-21 07:25N 57°38' E 010°42'0 0.0
2018-Feb-21 06:55N 57°38' E 010°42'0 0.1
2018-Feb-21 06:28N 57°38' E 010°42'0 0.1
2018-Feb-21 05:55N 57°38' E 010°42'0 0.1
2018-Feb-21 05:28N 57°38' E 010°42'0 0.0
2018-Feb-21 04:58N 57°38' E 010°42'0 0.0
2018-Feb-21 04:28N 57°38' E 010°42'0 0.0
2018-Feb-21 03:58N 57°38' E 010°42'0 0.0
2018-Feb-21 03:25N 57°38' E 010°42'0 0.0
2018-Feb-21 02:58N 57°38' E 010°42'0 0.0
2018-Feb-21 02:28N 57°38' E 010°42'0 0.0
2018-Feb-21 01:55N 57°38' E 010°42'0 0.0
2018-Feb-21 01:28N 57°38' E 010°42'0 0.0
2018-Feb-21 00:58N 57°38' E 010°42'0 0.0
2018-Feb-21 00:28N 57°38' E 010°42'0 0.0
2018-Feb-21 00:01N 57°38' E 010°42'0 0.0
2018-Feb-20 23:30N 57°38' E 010°42'0 0.0
2018-Feb-20 23:00N 57°38' E 010°42'0 0.0
2018-Feb-20 22:30N 57°38' E 010°42'0 0.0
2018-Feb-20 22:00N 57°38' E 010°42'0 0.1
2018-Feb-20 21:30N 57°38' E 010°42'0 0.1
2018-Feb-20 21:00N 57°38' E 010°42'0 0.1
2018-Feb-20 20:30N 57°38' E 010°42'0 0.0
2018-Feb-20 20:00N 57°38' E 010°42'0 0.0
2018-Feb-20 19:30N 57°38' E 010°42'0 0.0
2018-Feb-20 19:00N 57°38' E 010°42'0 0.1
2018-Feb-20 18:30N 57°38' E 010°42'0 0.0
2018-Feb-20 18:00N 57°38' E 010°42'0 0.0
2018-Feb-20 17:30N 57°38' E 010°42'0 0.0
2018-Feb-20 16:51N 57°38' E 010°42'0 0.0
2018-Feb-20 16:30N 57°38' E 010°42'0 0.0
2018-Feb-20 16:00N 57°38' E 010°42'0 0.0
2018-Feb-20 15:30N 57°38' E 010°42'0 0.0
2018-Feb-20 14:57N 57°38' E 010°42'0 0.0
2018-Feb-20 14:30N 57°38' E 010°42'0 0.0
2018-Feb-20 14:00N 57°38' E 010°42'0 0.0
2018-Feb-20 13:27N 57°38' E 010°42'0 0.0
2018-Feb-20 12:57N 57°38' E 010°42'0 0.0
2018-Feb-20 12:30N 57°38' E 010°42'0 0.0
2018-Feb-20 12:00N 57°38' E 010°42'0 0.1
2018-Feb-20 11:27N 57°38' E 010°42'0 0.1
2018-Feb-20 10:57N 57°38' E 010°42'0 0.0
2018-Feb-20 10:30N 57°38' E 010°42'0 0.0
2018-Feb-20 09:57N 57°38' E 010°42'0 0.0
2018-Feb-20 09:30N 57°38' E 010°42'0 0.0
2018-Feb-20 08:57N 57°38' E 010°42'0 0.1
2018-Feb-20 08:30N 57°38' E 010°42'0 0.3
2018-Feb-20 08:00N 57°38' E 010°42'3 5.1
2018-Feb-20 07:31N 57°40' E 010°45'4 7.1
2018-Feb-20 07:01N 57°44' E 010°46'4 8.6
2018-Feb-20 06:30N 57°48' E 010°46'3 6.4
2018-Feb-20 06:01N 57°51' E 010°46'3 5.9
2018-Feb-20 05:30N 57°54' E 010°46'3 5.8
2018-Feb-20 05:01N 57°57' E 010°45'3 5.4
2018-Feb-20 04:31N 57°60' E 010°44'3 5.9
2018-Feb-20 04:00N 58°03' E 010°44'3 6.2
2018-Feb-20 03:30N 58°06' E 010°43'3 5.9
2018-Feb-20 03:00N 58°09' E 010°43'3 6.2
2018-Feb-20 02:30N 58°12' E 010°42'3 6.2
2018-Feb-20 02:00N 58°15' E 010°41'3 6.2
2018-Feb-20 01:29N 58°18' E 010°41'3 6.1
2018-Feb-20 01:00N 58°21' E 010°41'5 5.9
2018-Feb-20 00:09N 58°26' E 010°40'1 5.9
2018-Feb-19 23:57N 58°27' E 010°40'3 6.0
2018-Feb-19 23:30N 58°30' E 010°40'3 6.0
2018-Feb-19 23:00N 58°33' E 010°39'3 5.9
2018-Feb-19 22:30N 58°36' E 010°39'3 6.0
2018-Feb-19 22:00N 58°39' E 010°38'3 5.7
2018-Feb-19 21:31N 58°41' E 010°38'3 6.0
2018-Feb-19 21:01N 58°44' E 010°37'3 6.1
2018-Feb-19 20:31N 58°47' E 010°37'3 6.3
2018-Feb-19 20:00N 58°51' E 010°36'3 6.8
2018-Feb-19 19:31N 58°54' E 010°36'4 7.6
2018-Feb-19 19:00N 58°58' E 010°35'4 7.7
2018-Feb-19 18:30N 59°02' E 010°36'4 7.2
2018-Feb-19 18:01N 59°05' E 010°33'510.3
2018-Feb-19 17:31N 59°10' E 010°38'611.7
2018-Feb-19 17:00N 59°15' E 010°35'5 9.0
2018-Feb-19 16:28N 59°20' E 010°31'0 0.2
2018-Feb-19 15:58N 59°20' E 010°31'0 0.0
2018-Feb-19 15:28N 59°20' E 010°31'0 0.0
2018-Feb-19 15:00N 59°20' E 010°31'0 0.0
2018-Feb-19 14:30N 59°20' E 010°31'0 0.0
2018-Feb-19 14:00N 59°20' E 010°31'0 0.0
2018-Feb-19 13:30N 59°20' E 010°31'0 0.0
2018-Feb-19 13:00N 59°20' E 010°31'0 0.0
2018-Feb-19 12:30N 59°20' E 010°31'0 0.0
2018-Feb-19 12:00N 59°20' E 010°31'0 0.0
2018-Feb-19 11:30N 59°20' E 010°31'0 0.0
2018-Feb-19 11:00N 59°20' E 010°31'0 0.0
2018-Feb-19 10:30N 59°20' E 010°31'0 0.0
2018-Feb-19 10:00N 59°20' E 010°31'0 0.0
2018-Feb-19 09:30N 59°20' E 010°31'0 0.0
2018-Feb-19 09:00N 59°20' E 010°31'0 0.0
2018-Feb-19 08:30N 59°20' E 010°31'0 0.0
2018-Feb-19 08:00N 59°20' E 010°31'0 0.0
2018-Feb-19 07:30N 59°20' E 010°31'0 0.0
2018-Feb-19 07:00N 59°20' E 010°31'0 0.0
2018-Feb-19 06:30N 59°20' E 010°31'0 0.0
2018-Feb-19 06:00N 59°20' E 010°31'0 0.0
2018-Feb-19 05:30N 59°20' E 010°31'0 0.0
2018-Feb-19 05:00N 59°20' E 010°31'0 0.0
2018-Feb-19 04:30N 59°20' E 010°31'0 0.0
2018-Feb-19 04:00N 59°20' E 010°31'0 0.0
2018-Feb-19 03:30N 59°20' E 010°31'0 0.0
2018-Feb-19 03:00N 59°20' E 010°31'0 0.0
2018-Feb-19 02:30N 59°20' E 010°31'0 0.0
2018-Feb-19 02:00N 59°20' E 010°31'0 0.0
2018-Feb-19 01:30N 59°20' E 010°31'0 0.0
2018-Feb-19 01:00N 59°20' E 010°31'0 0.0
2018-Feb-19 00:30N 59°20' E 010°31'0 0.0
2018-Feb-19 00:00N 59°20' E 010°31'0 0.0
2018-Feb-18 23:30N 59°20' E 010°31'0 0.0
2018-Feb-18 23:00N 59°20' E 010°31'0 0.0
2018-Feb-18 22:30N 59°20' E 010°31'0 0.0
2018-Feb-18 22:00N 59°20' E 010°31'0 0.0
2018-Feb-18 21:30N 59°20' E 010°31'0 0.0
2018-Feb-18 21:00N 59°20' E 010°31'0 0.0
2018-Feb-18 20:30N 59°20' E 010°31'0 0.0
2018-Feb-18 20:00N 59°20' E 010°31'0 0.0
2018-Feb-18 19:30N 59°20' E 010°31'0 0.0
2018-Feb-18 19:00N 59°20' E 010°31'0 0.0
2018-Feb-18 18:30N 59°20' E 010°31'0 0.0
2018-Feb-18 18:00N 59°20' E 010°31'0 0.2
2018-Feb-18 17:30N 59°20' E 010°31'2 3.2
2018-Feb-18 17:00N 59°19' E 010°33'5 9.7
2018-Feb-18 16:30N 59°14' E 010°36'5 9.8
2018-Feb-18 16:00N 59°09' E 010°39'5 9.7
2018-Feb-18 15:30N 59°05' E 010°34'4 8.4
2018-Feb-18 15:00N 59°01' E 010°35'5 9.9
2018-Feb-18 14:30N 58°56' E 010°31'510.9
2018-Feb-18 14:00N 58°53' E 010°24'510.8
2018-Feb-18 13:30N 58°49' E 010°17'611.3
2018-Feb-18 13:00N 58°44' E 010°10'611.3
2018-Feb-18 12:29N 58°40' E 010°02'5411.8
2018-Feb-18 07:52N 57°59' E 008°54'  
2018-Feb-12 19:05N 57°49' E 010°29'2 6.8
2018-Feb-12 18:49N 57°49' E 010°32'2 6.1
2018-Feb-12 18:31N 57°49' E 010°36'3 5.8
2018-Feb-12 17:58N 57°49' E 010°42'2 4.3
2018-Feb-12 17:31N 57°48' E 010°45'2 3.9
2018-Feb-12 17:01N 57°46' E 010°48'3 5.4
2018-Feb-12 16:30N 57°44' E 010°47'3 6.1
2018-Feb-12 16:00N 57°41' E 010°45'4 7.8
2018-Feb-12 15:30N 57°39' E 010°39'0 0.6
2018-Feb-12 15:00N 57°39' E 010°38'0 0.1
2018-Feb-12 14:30N 57°39' E 010°39'0 0.1
2018-Feb-12 14:00N 57°39' E 010°38'0 0.0
2018-Feb-12 13:24N 57°39' E 010°38'0 0.0
2018-Feb-12 12:57N 57°39' E 010°38'0 0.1
2018-Feb-12 12:30N 57°39' E 010°39'0 0.0
2018-Feb-12 11:57N 57°39' E 010°38'0 0.0
2018-Feb-12 11:24N 57°39' E 010°38'0 0.0
2018-Feb-12 10:59N 57°39' E 010°38'0 0.0
2018-Feb-12 10:26N 57°39' E 010°38'0 0.1
2018-Feb-12 09:59N 57°39' E 010°38'0 0.1
2018-Feb-12 08:44N 57°39' E 010°38'0 0.1
2018-Feb-12 08:29N 57°39' E 010°38'0 0.1
2018-Feb-12 07:59N 57°39' E 010°38'0 0.1
2018-Feb-12 07:29N 57°39' E 010°38'0 0.1
2018-Feb-12 06:59N 57°39' E 010°38'0 0.0
2018-Feb-12 06:29N 57°39' E 010°38'0 0.0
2018-Feb-12 05:56N 57°39' E 010°38'0 0.1
2018-Feb-12 05:29N 57°39' E 010°38'0 0.0
2018-Feb-12 04:59N 57°39' E 010°38'0 0.1
2018-Feb-12 04:26N 57°39' E 010°38'0 0.2
2018-Feb-12 03:59N 57°39' E 010°38'0 0.0
2018-Feb-12 03:29N 57°39' E 010°38'0 0.2
2018-Feb-12 02:56N 57°39' E 010°38'0 0.2
2018-Feb-12 02:29N 57°39' E 010°38'0 0.1
2018-Feb-12 01:59N 57°39' E 010°38'0 0.1
2018-Feb-12 01:26N 57°39' E 010°38'0 0.1
2018-Feb-12 00:56N 57°39' E 010°38'0 0.1
2018-Feb-12 00:26N 57°39' E 010°38'0 0.0
2018-Feb-11 23:56N 57°39' E 010°38'0 0.1
2018-Feb-11 23:29N 57°39' E 010°38'0 0.2
2018-Feb-11 22:59N 57°39' E 010°38'0 0.1
2018-Feb-11 22:29N 57°39' E 010°38'0 0.1
2018-Feb-11 21:56N 57°39' E 010°38'0 0.1
2018-Feb-11 21:29N 57°39' E 010°38'0 0.2
2018-Feb-11 20:59N 57°39' E 010°38'0 0.1
2018-Feb-11 20:23N 57°39' E 010°38'0 0.0
2018-Feb-11 19:53N 57°39' E 010°38'0 0.0
2018-Feb-11 19:26N 57°39' E 010°38'  

Dump ship's entire track history